createdAt,value
2022-08-18T00:01:22.955Z,3.13
2022-08-18T00:06:19.902Z,3.45
2022-08-18T00:11:16.393Z,3.25
2022-08-18T00:16:12.624Z,4.20
2022-08-18T00:21:08.921Z,4.57
2022-08-18T00:26:05.322Z,3.50
2022-08-18T00:31:01.629Z,4.00
2022-08-18T00:35:57.920Z,4.07
2022-08-18T00:40:55.118Z,5.53
2022-08-18T00:45:51.436Z,4.45
2022-08-18T00:50:58.777Z,5.53
2022-08-18T00:55:56.419Z,5.20
2022-08-18T01:00:52.809Z,5.55
2022-08-18T01:05:53.548Z,5.30
2022-08-18T01:10:50.896Z,4.97
2022-08-18T01:15:47.308Z,6.40
2022-08-18T01:21:13.035Z,5.95
2022-08-18T01:26:09.977Z,6.97
2022-08-18T01:31:06.722Z,6.25
2022-08-18T01:36:10.191Z,6.25
2022-08-18T01:41:25.748Z,7.03
2022-08-18T01:46:24.448Z,7.10
2022-08-18T01:51:21.710Z,6.95
2022-08-18T01:56:36.820Z,8.57
2022-08-18T02:01:38.011Z,8.57
2022-08-18T02:06:47.906Z,8.00
2022-08-18T02:11:44.370Z,8.35
2022-08-18T02:16:40.618Z,8.77
2022-08-18T02:21:37.236Z,7.40
2022-08-18T02:26:33.532Z,8.73
2022-08-18T02:31:29.921Z,8.68
2022-08-18T02:36:26.373Z,9.02
2022-08-18T02:41:22.906Z,8.68
2022-08-18T02:46:19.208Z,10.38
2022-08-18T02:51:16.271Z,10.77
2022-08-18T02:56:32.954Z,8.98
2022-08-18T03:01:39.582Z,10.02
2022-08-18T03:06:36.737Z,9.57
2022-08-18T03:11:33.121Z,10.98
2022-08-18T03:16:32.927Z,9.50
2022-08-18T03:21:31.264Z,10.32
2022-08-18T03:26:29.724Z,10.32
2022-08-18T03:31:28.141Z,9.57
2022-08-18T03:36:25.420Z,10.30
2022-08-18T03:41:57.495Z,10.45
2022-08-18T03:46:40.886Z,11.35
2022-08-18T03:51:37.733Z,11.30
2022-08-18T03:56:35.167Z,10.43
2022-08-18T04:01:33.108Z,10.75
2022-08-18T04:06:34.937Z,11.20
2022-08-18T04:11:35.954Z,9.82
2022-08-18T04:21:33.144Z,10.38
2022-08-18T04:26:29.834Z,10.93
2022-08-18T04:31:26.447Z,9.25
2022-08-18T04:36:23.190Z,9.32
2022-08-18T04:41:20.102Z,9.40
2022-08-18T04:46:16.588Z,10.77
2022-08-18T04:52:26.847Z,10.43
2022-08-18T04:56:33.832Z,11.15
2022-08-18T05:01:31.466Z,10.13
2022-08-18T05:06:28.083Z,9.93
2022-08-18T05:11:25.447Z,9.20
2022-08-18T05:16:27.514Z,10.02
2022-08-18T05:21:25.177Z,10.48
2022-08-18T05:26:22.093Z,10.68
2022-08-18T05:31:19.495Z,12.52
2022-08-18T05:36:24.914Z,11.43
2022-08-18T05:41:38.036Z,10.82
2022-08-18T05:46:38.552Z,10.88
2022-08-18T05:51:39.784Z,10.82
2022-08-18T05:56:46.254Z,10.32
2022-08-18T06:01:45.815Z,10.30
2022-08-18T06:06:47.377Z,10.30
2022-08-18T06:11:44.413Z,10.95
2022-08-18T06:16:56.155Z,11.98
2022-08-18T06:22:07.421Z,14.25
2022-08-18T06:27:10.191Z,12.82
2022-08-18T06:32:15.629Z,12.63
2022-08-18T06:37:17.865Z,13.02
2022-08-18T06:47:10.408Z,13.55
2022-08-18T06:52:23.472Z,12.65
2022-08-18T06:57:45.858Z,12.60
2022-08-18T07:02:49.438Z,13.47
2022-08-18T07:07:46.770Z,15.93
2022-08-18T07:12:43.466Z,22.90
2022-08-18T07:17:43.341Z,25.92
2022-08-18T07:22:53.312Z,26.90
2022-08-18T07:27:50.467Z,27.48
2022-08-18T07:32:50.290Z,28.05
2022-08-18T07:37:58.147Z,31.13
2022-08-18T07:43:01.860Z,26.98
2022-08-18T07:48:38.659Z,23.70
2022-08-18T07:54:01.736Z,23.55
2022-08-18T07:59:18.299Z,21.95
2022-08-18T08:04:33.251Z,22.67
2022-08-18T08:09:41.556Z,25.35
2022-08-18T08:14:40.607Z,25.92
2022-08-18T08:20:00.536Z,30.05
2022-08-18T08:25:28.301Z,33.33
2022-08-18T08:30:28.489Z,32.75
2022-08-18T08:35:49.257Z,30.08
2022-08-18T08:40:53.005Z,31.23
2022-08-18T08:45:55.197Z,28.05
2022-08-18T08:55:49.687Z,21.30
2022-08-18T09:00:47.127Z,21.23
2022-08-18T09:05:56.864Z,19.88
2022-08-18T09:11:28.808Z,20.10
2022-08-18T09:16:43.921Z,21.10
2022-08-18T09:21:45.800Z,21.38
2022-08-18T09:26:49.060Z,21.13
2022-08-18T09:31:46.256Z,21.10
2022-08-18T09:37:11.723Z,21.88
2022-08-18T09:42:11.727Z,21.35
2022-08-18T09:47:08.568Z,22.85
2022-08-18T09:52:31.729Z,21.17
2022-08-18T09:57:30.363Z,22.10
2022-08-18T10:02:37.715Z,21.90
2022-08-18T10:13:01.981Z,20.58
2022-08-18T10:18:01.649Z,19.85
2022-08-18T10:22:58.071Z,21.65
2022-08-18T10:27:56.406Z,20.20
2022-08-18T10:32:54.513Z,18.63
2022-08-18T10:37:51.881Z,18.92
2022-08-18T10:42:53.911Z,19.85
2022-08-18T10:53:50.167Z,17.55
2022-08-18T10:58:50.620Z,18.00
2022-08-18T11:03:55.573Z,17.27
2022-08-18T11:08:57.462Z,18.77
2022-08-18T11:14:06.123Z,17.85
2022-08-18T11:19:14.239Z,16.50
2022-08-18T11:24:20.977Z,18.35
2022-08-18T11:29:22.185Z,15.55
2022-08-18T11:34:22.781Z,16.83
2022-08-18T11:39:22.362Z,15.25
2022-08-18T11:44:31.564Z,15.93
2022-08-18T11:49:33.434Z,13.32
2022-08-18T11:54:35.410Z,13.18
2022-08-18T12:04:52.394Z,14.35
2022-08-18T12:10:18.362Z,13.50
2022-08-18T12:15:23.859Z,12.65
2022-08-18T12:20:22.080Z,13.35
2022-08-18T12:25:24.833Z,12.18
2022-08-18T12:30:21.981Z,11.13
2022-08-18T12:35:22.112Z,11.60
2022-08-18T12:40:18.861Z,10.95
2022-08-18T12:45:15.828Z,12.32
2022-08-18T12:50:12.323Z,11.18
2022-08-18T12:55:21.891Z,11.20
2022-08-18T13:00:19.942Z,11.13
2022-08-18T13:05:16.325Z,11.98
2022-08-18T13:10:35.799Z,14.20
2022-08-18T13:15:29.091Z,11.85
2022-08-18T13:20:26.205Z,10.77
2022-08-18T13:25:33.285Z,11.75
2022-08-18T13:30:36.121Z,11.45
2022-08-18T13:35:38.122Z,10.73
2022-08-18T13:40:45.596Z,11.63
2022-08-18T13:45:44.356Z,11.32
2022-08-18T13:50:40.691Z,11.43
2022-08-18T13:55:38.098Z,13.07
2022-08-18T14:00:34.872Z,11.35
2022-08-18T14:05:36.575Z,11.80
2022-08-18T14:10:49.794Z,11.20
2022-08-18T14:15:50.096Z,11.43
2022-08-18T14:21:07.881Z,10.63
2022-08-18T14:26:24.452Z,11.02
2022-08-18T14:31:23.457Z,10.18
2022-08-18T14:36:29.665Z,13.20
2022-08-18T14:41:27.311Z,11.52
2022-08-18T14:46:30.018Z,12.93
2022-08-18T14:51:28.883Z,13.48
2022-08-18T14:56:28.572Z,13.27
2022-08-18T15:01:26.663Z,14.32
2022-08-18T15:06:27.292Z,11.88
2022-08-18T15:11:24.329Z,14.23
2022-08-18T15:16:22.400Z,12.50
2022-08-18T15:21:44.870Z,13.88
2022-08-18T15:26:42.379Z,12.38
2022-08-18T15:31:57.905Z,11.63
2022-08-18T15:36:56.962Z,11.85
2022-08-18T15:41:53.591Z,11.30
2022-08-18T15:46:53.425Z,11.23
2022-08-18T15:51:50.000Z,10.80
2022-08-18T15:56:57.605Z,12.52
2022-08-18T16:01:54.487Z,11.43
2022-08-18T16:06:52.596Z,9.77
2022-08-18T16:11:49.163Z,10.98
2022-08-18T16:16:45.495Z,11.00
2022-08-18T16:21:41.783Z,10.25
2022-08-18T16:26:38.089Z,11.10
2022-08-18T16:31:34.416Z,10.40
2022-08-18T16:36:31.877Z,10.93
2022-08-18T16:41:28.420Z,9.80
2022-08-18T16:46:26.418Z,10.35
2022-08-18T16:51:23.614Z,10.65
2022-08-18T16:56:21.520Z,9.85
2022-08-18T17:01:49.439Z,10.23
2022-08-18T17:06:47.354Z,12.30
2022-08-18T17:11:51.766Z,9.40
2022-08-18T17:16:49.090Z,9.18
2022-08-18T17:21:45.824Z,9.18
2022-08-18T17:26:48.749Z,8.75
2022-08-18T17:31:49.116Z,9.05
2022-08-18T17:36:52.838Z,9.18
2022-08-18T17:42:07.870Z,8.32
2022-08-18T17:47:04.378Z,8.40
2022-08-18T17:52:01.961Z,8.13
2022-08-18T17:57:06.270Z,8.40
2022-08-18T18:02:28.800Z,8.52
2022-08-18T18:07:38.290Z,6.72
2022-08-18T18:12:35.953Z,8.25
2022-08-18T18:17:37.558Z,8.13
2022-08-18T18:22:33.962Z,7.95
2022-08-18T18:27:30.297Z,7.20
2022-08-18T18:32:58.877Z,8.38
2022-08-18T18:38:02.416Z,8.30
2022-08-18T18:43:16.845Z,6.68
2022-08-18T18:48:48.188Z,8.65
2022-08-18T18:53:40.473Z,7.80
2022-08-18T18:58:54.017Z,7.68
2022-08-18T19:03:56.865Z,7.13
2022-08-18T19:08:55.907Z,5.95
2022-08-18T19:14:00.580Z,5.35
2022-08-18T19:19:36.834Z,5.65
2022-08-18T19:24:38.631Z,5.78
2022-08-18T19:29:37.498Z,5.38
2022-08-18T19:34:37.515Z,6.45
2022-08-18T19:40:10.921Z,5.10
2022-08-18T19:45:16.873Z,6.00
2022-08-18T19:50:13.632Z,5.30
2022-08-18T19:55:14.327Z,6.07
2022-08-18T20:00:40.136Z,5.72
2022-08-18T20:05:58.850Z,5.82
2022-08-18T20:11:17.955Z,6.00
2022-08-18T20:16:23.135Z,4.93
2022-08-18T20:21:22.124Z,4.82
2022-08-18T20:26:41.884Z,5.18
2022-08-18T20:31:44.439Z,5.55
2022-08-18T20:36:42.384Z,5.00
2022-08-18T20:41:42.894Z,5.25
2022-08-18T20:46:46.882Z,5.72
2022-08-18T20:51:53.724Z,5.38
2022-08-18T20:56:53.259Z,7.00
2022-08-18T21:01:53.855Z,6.38
2022-08-18T21:06:50.162Z,5.63
2022-08-18T21:11:47.127Z,5.38
2022-08-18T21:16:48.081Z,4.85
2022-08-18T21:21:46.998Z,4.70
2022-08-18T21:26:45.783Z,5.55
2022-08-18T21:31:45.160Z,6.60
2022-08-18T21:36:49.480Z,4.90
2022-08-18T21:41:48.154Z,5.90
2022-08-18T21:46:45.906Z,5.90
2022-08-18T21:51:46.631Z,5.70
2022-08-18T21:56:43.252Z,5.97
2022-08-18T22:01:53.731Z,5.47
2022-08-18T22:06:52.160Z,5.20
2022-08-18T22:12:06.974Z,4.97
2022-08-18T22:17:22.206Z,5.53
2022-08-18T22:22:38.503Z,6.53
2022-08-18T22:27:34.824Z,6.85
2022-08-18T22:32:32.416Z,6.68
2022-08-18T22:37:32.585Z,6.00
2022-08-18T22:42:32.089Z,9.10
2022-08-18T22:47:29.619Z,8.27
2022-08-18T22:52:29.754Z,7.28
2022-08-18T22:57:27.090Z,7.75
2022-08-18T23:02:23.863Z,8.52
2022-08-18T23:07:22.883Z,8.23
2022-08-18T23:12:19.238Z,9.07
2022-08-18T23:17:15.732Z,9.75
2022-08-18T23:22:12.301Z,9.88
2022-08-18T23:27:09.303Z,8.57
2022-08-18T23:32:06.872Z,9.02
2022-08-18T23:37:03.965Z,8.90
2022-08-18T23:42:00.472Z,8.32
2022-08-18T23:46:57.920Z,8.93
2022-08-18T23:51:56.016Z,9.50
2022-08-18T23:56:52.552Z,9.38
